createdAt,value
2023-04-21T00:01:50.119Z,100626.66
2023-04-21T00:06:44.834Z,100613.09
2023-04-21T00:11:38.219Z,100588.16
2023-04-21T00:16:31.365Z,100638.19
2023-04-21T00:21:24.564Z,100634.63
2023-04-21T00:26:20.039Z,100627.75
2023-04-21T00:31:15.399Z,100628.81
2023-04-21T00:36:08.745Z,100618.13
2023-04-21T00:41:01.997Z,100535.75
2023-04-21T00:45:56.540Z,100578.06
2023-04-21T00:50:49.907Z,100542.88
2023-04-21T00:55:43.329Z,100570.06
2023-04-21T01:00:36.587Z,100606.94
2023-04-21T01:05:33.080Z,100422.78
2023-04-21T01:10:26.522Z,100611.59
2023-04-21T01:15:19.783Z,100593.97
2023-04-21T01:20:15.745Z,100592.66
2023-04-21T01:25:11.416Z,100630.91
2023-04-21T01:30:05.479Z,100585.63
2023-04-21T01:35:00.048Z,100647.19
2023-04-21T01:39:55.903Z,100610.25
2023-04-21T01:44:50.845Z,100608.47
2023-04-21T01:49:44.106Z,100650.19
2023-04-21T01:54:38.927Z,100568.63
2023-04-21T01:59:32.052Z,100589.22
2023-04-21T02:04:26.833Z,100579.97
2023-04-21T02:09:20.256Z,100611.97
2023-04-21T02:14:13.569Z,100597.47
2023-04-21T02:19:07.754Z,100578.59
2023-04-21T02:24:02.384Z,100582.16
2023-04-21T02:28:55.572Z,100570.75
2023-04-21T02:33:48.684Z,100565.97
2023-04-21T02:38:41.836Z,100580.44
2023-04-21T02:43:38.125Z,100577.78
2023-04-21T02:48:31.359Z,100542.47
2023-04-21T02:53:24.483Z,100581.31
2023-04-21T02:58:19.054Z,100588.97
2023-04-21T03:03:13.794Z,100583.81
2023-04-21T03:08:09.133Z,100542.50
2023-04-21T03:13:02.210Z,100588.97
2023-04-21T03:17:57.861Z,100592.63
2023-04-21T03:22:54.685Z,100535.19
2023-04-21T03:27:47.870Z,100594.63
2023-04-21T03:32:41.120Z,100595.03
2023-04-21T03:37:34.244Z,100603.16
2023-04-21T03:42:30.242Z,100620.59
2023-04-21T03:47:23.895Z,100585.22
2023-04-21T03:52:20.875Z,100588.25
2023-04-21T03:57:14.020Z,100568.06
2023-04-21T04:02:08.714Z,100632.94
2023-04-21T04:07:04.852Z,100602.72
2023-04-21T04:11:58.045Z,100628.22
2023-04-21T04:16:51.131Z,100608.16
2023-04-21T04:21:47.004Z,100655.09
2023-04-21T04:26:41.393Z,100666.44
2023-04-21T04:31:34.863Z,100614.75
2023-04-21T04:36:28.576Z,100679.72
2023-04-21T04:41:24.234Z,100681.78
2023-04-21T04:46:17.443Z,100682.66
2023-04-21T04:51:10.593Z,100673.16
2023-04-21T04:56:03.872Z,100690.91
2023-04-21T05:00:58.377Z,100708.19
2023-04-21T05:05:51.482Z,100668.00
2023-04-21T05:10:44.559Z,100720.59
2023-04-21T05:15:37.582Z,100719.34
2023-04-21T05:20:32.263Z,100725.25
2023-04-21T05:25:25.498Z,100710.41
2023-04-21T05:30:18.727Z,100666.06
2023-04-21T05:35:12.214Z,100692.47
2023-04-21T05:40:08.094Z,100723.63
2023-04-21T05:45:01.312Z,100734.59
2023-04-21T05:49:55.817Z,100732.31
2023-04-21T05:54:49.012Z,100742.50
2023-04-21T05:59:52.508Z,100731.00
2023-04-21T06:04:45.987Z,100727.06
2023-04-21T06:09:39.312Z,100747.50
2023-04-21T06:14:32.552Z,100750.09
2023-04-21T06:19:29.001Z,100756.16
2023-04-21T06:24:25.568Z,100754.75
2023-04-21T06:29:23.429Z,100759.16
2023-04-21T06:34:20.326Z,100762.75
2023-04-21T06:39:16.524Z,100763.44
2023-04-21T06:44:14.046Z,100723.25
2023-04-21T06:49:07.264Z,100766.88
2023-04-21T06:54:01.187Z,100729.53
2023-04-21T06:58:55.704Z,100766.22
2023-04-21T07:03:48.869Z,100758.78
2023-04-21T07:08:42.351Z,100724.00
2023-04-21T07:13:35.444Z,100756.06
2023-04-21T07:18:35.678Z,100611.31
2023-04-21T07:23:28.540Z,100762.06
2023-04-21T07:28:24.399Z,100766.44
2023-04-21T07:33:17.721Z,100667.06
2023-04-21T07:38:12.466Z,100760.34
2023-04-21T07:43:05.615Z,100604.97
2023-04-21T07:47:59.348Z,100759.72
2023-04-21T07:52:52.570Z,100757.84
2023-04-21T07:57:47.171Z,100638.88
2023-04-21T08:02:40.590Z,100787.88
2023-04-21T08:07:42.122Z,100759.69
2023-04-21T08:12:35.384Z,100749.88
2023-04-21T08:17:30.019Z,100779.16
2023-04-21T08:22:23.406Z,100605.06
2023-04-21T08:27:16.793Z,100698.47
2023-04-21T08:32:10.132Z,100780.44
2023-04-21T08:37:04.758Z,100775.59
2023-04-21T08:42:00.184Z,100776.00
2023-04-21T08:46:55.455Z,100750.75
2023-04-21T08:51:48.879Z,100776.94
2023-04-21T08:56:43.440Z,100771.06
2023-04-21T09:02:10.950Z,100763.81
2023-04-21T09:07:05.209Z,100774.13
2023-04-21T09:12:00.256Z,100762.63
2023-04-21T09:17:01.601Z,100671.56
2023-04-21T09:21:57.474Z,100772.13
2023-04-21T09:26:52.063Z,100692.19
2023-04-21T09:31:46.891Z,100771.63
2023-04-21T09:36:45.120Z,100667.44
2023-04-21T09:41:40.818Z,100741.13
2023-04-21T09:46:36.048Z,100777.31
2023-04-21T09:51:48.625Z,100730.91
2023-04-21T09:56:47.726Z,100776.88
2023-04-21T10:01:41.743Z,100735.97
2023-04-21T10:06:36.536Z,100731.38
2023-04-21T10:11:29.781Z,100776.53
2023-04-21T10:16:23.401Z,100768.59
2023-04-21T10:21:22.161Z,100675.31
2023-04-21T10:26:22.249Z,100770.06
2023-04-21T10:31:20.277Z,100749.28
2023-04-21T10:36:15.806Z,100745.41
2023-04-21T10:41:29.041Z,100778.25
2023-04-21T10:46:41.317Z,100731.56
2023-04-21T10:51:34.654Z,100758.47
2023-04-21T10:56:30.365Z,100687.69
2023-04-21T11:01:23.629Z,100784.56
2023-04-21T11:06:18.314Z,100773.78
2023-04-21T11:11:11.588Z,100784.84
2023-04-21T11:16:09.494Z,100754.50
2023-04-21T11:21:20.275Z,100773.94
2023-04-21T11:26:16.244Z,100648.63
2023-04-21T11:31:12.394Z,100772.91
2023-04-21T11:36:07.617Z,100766.59
2023-04-21T11:41:00.963Z,100765.22
2023-04-21T11:45:54.437Z,100745.28
2023-04-21T11:50:52.320Z,100760.06
2023-04-21T11:55:46.848Z,100714.06
2023-04-21T12:00:40.821Z,100752.56
2023-04-21T12:05:37.208Z,100764.03
2023-04-21T12:10:32.544Z,100744.34
2023-04-21T12:15:31.447Z,100750.22
2023-04-21T12:20:31.164Z,100762.38
2023-04-21T12:25:25.360Z,100770.69
2023-04-21T12:30:28.556Z,100762.53
2023-04-21T12:35:24.711Z,100736.78
2023-04-21T12:40:24.387Z,100759.28
2023-04-21T12:45:19.659Z,100755.63
2023-04-21T12:50:14.408Z,100633.03
2023-04-21T12:55:10.245Z,100720.06
2023-04-21T13:00:05.055Z,100712.78
2023-04-21T13:04:58.247Z,100740.66
2023-04-21T13:09:52.845Z,100696.25
2023-04-21T13:14:46.374Z,100613.31
2023-04-21T13:19:39.694Z,100693.28
2023-04-21T13:24:32.964Z,100732.75
2023-04-21T13:29:30.449Z,100740.06
2023-04-21T13:34:24.315Z,100718.88
2023-04-21T13:39:20.230Z,100697.53
2023-04-21T13:44:15.832Z,100681.50
2023-04-21T13:49:12.867Z,100728.09
2023-04-21T13:54:06.346Z,100671.09
2023-04-21T13:59:00.637Z,100720.34
2023-04-21T14:03:57.550Z,100706.44
2023-04-21T14:08:56.141Z,100694.72
2023-04-21T14:14:05.328Z,100711.06
2023-04-21T14:19:03.611Z,100699.84
2023-04-21T14:23:58.154Z,100712.53
2023-04-21T14:28:51.390Z,100721.47
2023-04-21T14:33:51.018Z,100730.56
2023-04-21T14:38:44.230Z,100723.38
2023-04-21T14:43:39.104Z,100729.50
2023-04-21T14:48:33.016Z,100717.16
2023-04-21T14:53:26.672Z,100698.28
2023-04-21T14:58:19.944Z,100717.28
2023-04-21T15:03:14.588Z,100718.09
2023-04-21T15:08:11.913Z,100721.22
2023-04-21T15:13:05.682Z,100681.25
2023-04-21T15:17:58.876Z,100712.06
2023-04-21T15:22:53.397Z,100681.50
2023-04-21T15:27:46.841Z,100691.84
2023-04-21T15:32:40.785Z,100677.91
2023-04-21T15:37:34.817Z,100657.31
2023-04-21T15:42:34.134Z,100697.25
2023-04-21T15:47:33.895Z,100575.56
2023-04-21T15:52:27.704Z,100593.81
2023-04-21T15:57:24.643Z,100691.47
2023-04-21T16:02:28.815Z,100673.97
2023-04-21T16:07:22.235Z,100692.69
2023-04-21T16:12:20.863Z,100681.56
2023-04-21T16:17:14.917Z,100589.06
2023-04-21T16:22:20.278Z,100597.69
2023-04-21T16:27:24.606Z,100662.25
2023-04-21T16:32:29.626Z,100602.56
2023-04-21T16:37:48.129Z,100700.78
2023-04-21T16:42:44.585Z,100673.97
2023-04-21T16:47:45.106Z,100684.78
2023-04-21T16:52:38.803Z,100685.41
2023-04-21T16:57:39.766Z,100634.50
2023-04-21T17:02:33.028Z,100709.72
2023-04-21T17:07:32.865Z,100601.31
2023-04-21T17:12:26.681Z,100717.56
2023-04-21T17:17:23.788Z,100723.25
2023-04-21T17:22:17.069Z,100700.06
2023-04-21T17:27:11.325Z,100681.97
2023-04-21T17:32:04.746Z,100730.78
2023-04-21T17:36:59.441Z,100702.69
2023-04-21T17:41:52.715Z,100728.56
2023-04-21T17:46:46.464Z,100673.09
2023-04-21T17:51:40.752Z,100655.09
2023-04-21T17:56:35.307Z,100582.59
2023-04-21T18:01:29.812Z,100627.69
2023-04-21T18:06:23.598Z,100684.91
2023-04-21T18:11:16.748Z,100734.44
2023-04-21T18:16:11.481Z,100747.03
2023-04-21T18:21:04.984Z,100759.34
2023-04-21T18:26:00.311Z,100749.22
2023-04-21T18:31:10.907Z,100582.66
2023-04-21T18:36:08.401Z,100766.34
2023-04-21T18:41:01.578Z,100772.81
2023-04-21T18:45:54.706Z,100780.13
2023-04-21T18:50:47.924Z,100762.28
2023-04-21T18:55:42.544Z,100770.69
2023-04-21T19:00:38.999Z,100759.59
2023-04-21T19:05:34.874Z,100782.09
2023-04-21T19:10:31.310Z,100773.25
2023-04-21T19:15:26.433Z,100781.25
2023-04-21T19:20:19.819Z,100758.72
2023-04-21T19:25:13.371Z,100787.41
2023-04-21T19:30:12.362Z,100786.16
2023-04-21T19:35:09.832Z,100734.25
2023-04-21T19:40:09.712Z,100717.47
2023-04-21T19:45:19.749Z,100774.19
2023-04-21T19:50:17.947Z,100804.34
2023-04-21T19:55:12.150Z,100803.78
2023-04-21T20:00:12.530Z,100789.19
2023-04-21T20:05:09.588Z,100806.06
2023-04-21T20:10:08.242Z,100807.28
2023-04-21T20:15:02.902Z,100774.66
2023-04-21T20:19:56.320Z,100780.22
2023-04-21T20:24:52.081Z,100763.72
2023-04-21T20:29:47.677Z,100769.19
2023-04-21T20:34:40.860Z,100756.97
2023-04-21T20:39:34.144Z,100766.38
2023-04-21T20:44:31.392Z,100808.91
2023-04-21T20:49:28.186Z,100808.91
2023-04-21T20:54:22.469Z,100781.78
2023-04-21T20:59:17.782Z,100801.38
2023-04-21T21:04:11.150Z,100763.41
2023-04-21T21:09:06.118Z,100792.88
2023-04-21T21:13:59.319Z,100782.91
2023-04-21T21:18:54.656Z,100789.78
2023-04-21T21:23:47.955Z,100822.09
2023-04-21T21:28:42.561Z,100803.22
2023-04-21T21:33:36.430Z,100793.84
2023-04-21T21:38:35.652Z,100723.63
2023-04-21T21:43:28.740Z,100811.22
2023-04-21T21:48:23.883Z,100833.59
2023-04-21T21:53:17.110Z,100782.97
2023-04-21T21:58:10.311Z,100823.53
2023-04-21T22:03:03.610Z,100839.75
2023-04-21T22:07:58.374Z,100809.69
2023-04-21T22:12:51.725Z,100830.41
2023-04-21T22:17:45.578Z,100857.78
2023-04-21T22:22:40.469Z,100830.97
2023-04-21T22:27:35.060Z,100877.16
2023-04-21T22:32:29.321Z,100854.69
2023-04-21T22:37:22.468Z,100854.00
2023-04-21T22:42:15.939Z,100803.41
2023-04-21T22:47:10.830Z,100881.69
2023-04-21T22:52:04.033Z,100890.38
2023-04-21T22:56:57.657Z,100783.91
2023-04-21T23:01:51.052Z,100900.03
2023-04-21T23:06:45.700Z,100885.84
2023-04-21T23:11:39.231Z,100886.78
2023-04-21T23:16:32.315Z,100895.47
2023-04-21T23:21:25.619Z,100902.75
2023-04-21T23:26:20.214Z,100881.22
2023-04-21T23:31:13.514Z,100867.06
2023-04-21T23:36:07.176Z,100859.78
2023-04-21T23:41:00.985Z,100896.44
2023-04-21T23:45:55.595Z,100894.44
2023-04-21T23:50:48.788Z,100845.03
2023-04-21T23:55:46.195Z,100884.66
